Time;durP1;ratioP1;P1;durP2;ratioP2;P2;SDS_P1;SDS_P2;PMS_P1;PMS_P2;Temp;Humidity;BMP_temperature;BMP_pressure;BME280_temperature;BME280_humidity;BME280_pressure;Samples;Min_cycle;Max_cycle;Signal;HPM_P1;HPM_P2
2023/06/02 00:01:14;;;;;;;11.30;10.23;;;;;;;14.94;95.10;92703.66;5009479;28;20223;-80
2023/06/02 00:03:40;;;;;;;11.87;10.97;;;;;;;15.31;94.77;92734.75;5007575;28;20206;-79
2023/06/02 00:06:11;;;;;;;12.07;11.07;;;;;;;15.25;94.97;92731.47;4996952;28;20223;-80
2023/06/02 00:08:38;;;;;;;11.17;10.17;;;;;;;15.19;94.88;92739.81;5011395;28;20836;-80
2023/06/02 00:11:05;;;;;;;12.10;10.97;;;;;;;15.26;94.00;92740.16;4999798;28;20223;-79
2023/06/02 00:13:30;;;;;;;11.83;11.03;;;;;;;15.31;94.44;92730.28;5006188;28;20191;-79
2023/06/02 00:15:56;;;;;;;11.80;11.00;;;;;;;15.36;94.38;92737.25;5012443;28;20316;-79
2023/06/02 00:18:22;;;;;;;12.37;11.47;;;;;;;15.14;94.69;92697.88;5016358;28;20191;-79
2023/06/02 00:20:48;;;;;;;12.23;11.20;;;;;;;15.20;96.42;92712.44;5013071;28;20913;-79
2023/06/02 00:23:14;;;;;;;12.50;11.20;;;;;;;15.46;96.17;92731.75;5008666;28;20192;-79
2023/06/02 00:25:40;;;;;;;11.00;10.40;;;;;;;15.49;95.22;92741.66;5009877;28;20207;-80
2023/06/02 00:28:05;;;;;;;12.53;11.50;;;;;;;15.21;95.99;92706.09;5013754;28;20198;-79
2023/06/02 00:30:31;;;;;;;12.17;11.27;;;;;;;15.33;96.39;92720.22;5013067;28;20219;-80
2023/06/02 00:32:57;;;;;;;12.03;10.93;;;;;;;15.37;96.18;92729.06;5015840;28;20198;-80
2023/06/02 00:35:22;;;;;;;12.60;11.77;;;;;;;15.38;95.66;92714.06;5014173;28;20286;-80
2023/06/02 00:37:48;;;;;;;11.10;10.20;;;;;;;15.37;96.54;92733.53;5011988;28;20197;-79
2023/06/02 00:40:14;;;;;;;12.00;11.03;;;;;;;15.01;97.13;92732.91;5012050;28;20227;-80
2023/06/02 00:42:39;;;;;;;10.90;9.97;;;;;;;15.04;98.40;92721.78;5011911;28;20195;-79
2023/06/02 00:45:05;;;;;;;12.53;11.73;;;;;;;15.05;97.90;92702.31;5012088;28;20223;-80
2023/06/02 00:47:31;;;;;;;12.93;12.03;;;;;;;14.98;97.39;92705.38;5014045;28;20183;-79
2023/06/02 00:49:57;;;;;;;12.37;11.40;;;;;;;15.13;96.88;92696.31;5012753;28;20254;-80
2023/06/02 00:52:23;;;;;;;13.17;12.07;;;;;;;15.28;96.71;92730.09;5012148;28;20200;-79
2023/06/02 00:54:48;;;;;;;12.47;11.37;;;;;;;15.09;98.04;92716.41;4993936;28;20219;-80
2023/06/02 00:57:13;;;;;;;12.50;11.60;;;;;;;15.29;97.06;92727.16;5012063;28;20195;-79
2023/06/02 00:59:39;;;;;;;12.67;11.57;;;;;;;14.99;97.74;92679.88;5010608;28;20229;-79
2023/06/02 01:02:05;;;;;;;11.87;10.97;;;;;;;15.31;97.47;92724.22;5015139;28;20874;-79
2023/06/02 01:04:31;;;;;;;12.67;11.33;;;;;;;14.92;98.33;92675.03;5013106;28;20238;-80
2023/06/02 01:07:02;;;;;;;12.60;11.70;;;;;;;15.20;98.17;92720.31;4993077;28;20275;-79
2023/06/02 01:09:29;;;;;;;12.27;11.20;;;;;;;15.10;99.34;92710.06;5012146;28;20216;-80
2023/06/02 01:11:55;;;;;;;12.50;11.53;;;;;;;15.16;98.76;92716.75;5019157;28;20513;-80
2023/06/02 01:14:20;;;;;;;12.67;11.60;;;;;;;15.22;98.48;92720.81;5010986;28;20223;-74
2023/06/02 01:16:49;;;;;;;11.17;10.37;;;;;;;15.32;97.85;92713.41;5015037;28;20206;-74
2023/06/02 01:19:21;;;;;;;12.10;11.20;;;;;;;15.17;97.52;92713.03;5013221;28;20246;-74
2023/06/02 01:21:57;;;;;;;12.27;11.17;;;;;;;15.21;97.60;92706.88;5005971;28;20252;-75
2023/06/02 01:24:30;;;;;;;12.27;11.27;;;;;;;15.14;97.82;92685.50;5007039;28;20238;-74
2023/06/02 01:26:56;;;;;;;12.13;11.20;;;;;;;15.21;98.03;92706.09;4994684;28;20191;-74
2023/06/02 01:29:21;;;;;;;12.87;11.97;;;;;;;15.08;98.91;92696.47;5010718;28;20231;-73
2023/06/02 01:31:52;;;;;;;12.13;11.13;;;;;;;15.13;98.45;92698.97;5016197;28;20205;-74
2023/06/02 01:34:28;;;;;;;13.17;12.07;;;;;;;14.96;98.38;92681.25;4993981;28;20223;-74
2023/06/02 01:36:57;;;;;;;13.13;12.13;;;;;;;15.15;98.69;92702.03;5009816;28;20278;-75
2023/06/02 01:39:23;;;;;;;12.80;11.80;;;;;;;14.93;99.05;92668.69;5006223;28;20246;-73
2023/06/02 01:41:51;;;;;;;12.73;11.77;;;;;;;15.04;98.54;92695.50;5025526;28;20187;-75
2023/06/02 01:44:16;;;;;;;12.93;11.97;;;;;;;14.86;99.31;92681.53;5019446;28;20227;-74
2023/06/02 01:46:44;;;;;;;12.20;11.30;;;;;;;14.85;99.51;92666.06;5011707;28;21609;-74
2023/06/02 01:49:15;;;;;;;13.20;12.00;;;;;;;15.08;99.30;92691.94;5002433;28;20253;-74
2023/06/02 01:51:41;;;;;;;12.37;11.50;;;;;;;14.98;98.12;92667.78;5011573;28;20188;-74
2023/06/02 01:54:06;;;;;;;12.10;11.30;;;;;;;14.82;100.00;92685.06;5011395;28;20187;-74
2023/06/02 01:56:31;;;;;;;12.30;11.30;;;;;;;15.02;99.32;92690.53;5011376;28;20219;-75
2023/06/02 01:58:58;;;;;;;10.83;10.13;;;;;;;15.10;97.77;92686.38;5010684;28;20249;-75
2023/06/02 02:01:24;;;;;;;11.87;11.13;;;;;;;15.01;97.89;92682.94;5016872;28;20272;-74
2023/06/02 02:03:50;;;;;;;12.13;11.10;;;;;;;14.81;98.77;92673.75;5009761;28;20210;-75
2023/06/02 02:06:16;;;;;;;13.10;11.73;;;;;;;15.06;97.87;92675.72;4993797;28;20243;-74
2023/06/02 02:08:41;;;;;;;11.87;10.97;;;;;;;15.06;97.06;92672.31;5016280;28;20207;-74
2023/06/02 02:11:07;;;;;;;12.90;11.97;;;;;;;15.19;96.82;92692.47;5000429;28;20227;-74
2023/06/02 02:13:32;;;;;;;11.60;10.67;;;;;;;15.11;96.32;92675.59;5013714;28;20224;-74
2023/06/02 02:15:57;;;;;;;12.00;10.83;;;;;;;15.17;95.54;92684.91;5013642;28;20301;-75
2023/06/02 02:18:24;;;;;;;12.27;11.37;;;;;;;14.94;94.90;92651.09;5003106;28;20278;-74
2023/06/02 02:20:50;;;;;;;11.20;10.40;;;;;;;15.26;95.16;92690.97;5009512;28;20223;-74
2023/06/02 02:23:15;;;;;;;11.67;10.87;;;;;;;15.11;96.00;92662.44;5006303;28;20207;-74
2023/06/02 02:25:41;;;;;;;11.63;10.63;;;;;;;15.32;97.22;92695.00;5011087;28;20207;-75
2023/06/02 02:28:06;;;;;;;12.50;11.40;;;;;;;15.15;96.95;92673.13;5009799;28;20211;-73
2023/06/02 02:30:32;;;;;;;11.77;10.77;;;;;;;15.26;96.86;92690.97;4993015;28;20227;-74
2023/06/02 02:32:57;;;;;;;13.00;11.80;;;;;;;15.27;96.76;92686.47;5010573;28;20207;-74
2023/06/02 02:35:22;;;;;;;13.87;12.57;;;;;;;15.29;97.95;92684.31;5009652;28;20231;-74
2023/06/02 02:37:48;;;;;;;12.90;11.80;;;;;;;15.16;98.66;92674.69;5009943;28;20229;-74
2023/06/02 02:40:15;;;;;;;11.87;10.97;;;;;;;15.16;99.33;92679.94;5010208;28;20247;-74
2023/06/02 02:42:41;;;;;;;12.77;11.77;;;;;;;15.15;100.00;92686.25;4992824;28;20203;-75
2023/06/02 02:45:08;;;;;;;11.87;11.07;;;;;;;15.20;100.00;92672.97;5009970;28;20215;-74
2023/06/02 02:47:33;;;;;;;12.13;11.13;;;;;;;15.30;99.64;92676.09;5006451;28;20262;-74
2023/06/02 02:49:59;;;;;;;12.77;11.57;;;;;;;15.25;98.57;92678.09;5010072;28;20246;-74
2023/06/02 02:52:24;;;;;;;12.63;11.63;;;;;;;15.18;98.60;92648.84;5010228;28;20226;-74
2023/06/02 02:54:50;;;;;;;12.50;11.63;;;;;;;15.24;99.38;92682.59;5010728;28;20223;-74
2023/06/02 02:57:15;;;;;;;12.50;11.27;;;;;;;15.28;99.15;92682.75;5017708;28;20196;-73
2023/06/02 02:59:41;;;;;;;12.57;11.67;;;;;;;15.16;98.52;92674.69;5011579;28;20234;-75
2023/06/02 03:02:06;;;;;;;13.23;12.07;;;;;;;15.15;98.41;92662.59;5010047;28;20194;-74
2023/06/02 03:04:32;;;;;;;13.23;11.77;;;;;;;15.40;98.46;92680.34;5009887;28;20234;-74
2023/06/02 03:06:58;;;;;;;11.97;11.00;;;;;;;15.63;97.92;92694.94;5009145;28;20176;-74
2023/06/02 03:09:24;;;;;;;13.07;11.60;;;;;;;15.65;96.92;92677.78;5009884;28;20223;-74
2023/06/02 03:11:49;;;;;;;12.13;11.13;;;;;;;15.72;95.86;92679.97;4996734;28;20321;-74
2023/06/02 03:14:15;;;;;;;13.77;12.40;;;;;;;15.74;95.94;92690.94;5009250;28;20247;-74
2023/06/02 03:16:44;;;;;;;12.80;11.83;;;;;;;15.79;96.69;92696.84;4991009;28;20274;-74
2023/06/02 03:19:14;;;;;;;11.70;10.80;;;;;;;15.80;96.59;92694.97;5007780;28;20202;-75
2023/06/02 03:21:44;;;;;;;11.97;11.07;;;;;;;15.74;95.42;92688.31;5002198;28;20187;-74
2023/06/02 03:24:15;;;;;;;17.20;11.00;;;;;;;15.72;94.63;92677.34;5010160;28;20180;-74
2023/06/02 03:26:41;;;;;;;12.03;11.13;;;;;;;15.73;96.16;92684.13;5007324;28;20179;-75
2023/06/02 03:29:08;;;;;;;12.97;11.87;;;;;;;15.89;95.77;92687.88;5005029;28;20180;-74
2023/06/02 03:31:34;;;;;;;12.63;11.63;;;;;;;15.97;95.09;92685.25;5003237;28;20198;-74
2023/06/02 03:33:59;;;;;;;11.70;10.80;;;;;;;16.07;94.98;92689.44;5009029;28;20207;-75
2023/06/02 03:36:25;;;;;;;12.50;11.60;;;;;;;16.02;95.73;92687.72;5009597;28;20219;-74
2023/06/02 03:38:50;;;;;;;12.07;11.17;;;;;;;15.93;95.93;92670.38;5009466;28;20188;-75
2023/06/02 03:41:16;;;;;;;12.43;11.50;;;;;;;16.25;95.41;92693.59;5007970;28;20219;-75
2023/06/02 03:43:41;;;;;;;12.70;11.70;;;;;;;16.63;94.29;92694.53;5013529;28;20183;-74
2023/06/02 03:46:06;;;;;;;14.43;13.23;;;;;;;17.28;87.67;92705.53;5007963;28;20295;-74
2023/06/02 03:48:33;;;;;;;12.63;11.73;;;;;;;17.78;86.33;92704.84;5008831;28;20183;-68
2023/06/02 03:50:58;;;;;;;12.67;11.67;;;;;;;17.63;86.03;92697.47;5008267;28;20235;-69
2023/06/02 03:53:24;;;;;;;12.33;11.33;;;;;;;17.85;85.67;92691.91;5002149;28;20191;-71
2023/06/02 03:55:49;;;;;;;11.77;10.97;;;;;;;18.43;83.27;92702.38;5019175;28;20231;-72
2023/06/02 03:58:14;;;;;;;12.03;11.07;;;;;;;18.91;80.70;92690.13;5008442;28;20260;-72
2023/06/02 04:00:41;;;;;;;12.63;11.53;;;;;;;18.80;81.13;92698.81;5011613;28;20282;-71
2023/06/02 04:03:09;;;;;;;11.67;10.70;;;;;;;19.05;79.84;92689.84;5012187;28;20212;-69
2023/06/02 04:05:35;;;;;;;12.43;11.53;;;;;;;19.11;79.14;92675.28;5011761;28;20228;-75
2023/06/02 04:08:00;;;;;;;12.73;11.50;;;;;;;19.03;78.79;92676.16;5011039;28;20191;-69
2023/06/02 04:10:28;;;;;;;12.13;11.20;;;;;;;19.23;77.96;92685.88;5010057;28;20229;-70
2023/06/02 04:12:53;;;;;;;15.40;11.80;;;;;;;19.36;76.42;92694.66;4992652;28;20189;-70
2023/06/02 04:15:19;;;;;;;12.03;11.13;;;;;;;19.15;76.78;92684.09;5010692;28;20263;-71
2023/06/02 04:17:44;;;;;;;11.80;10.90;;;;;;;18.55;77.15;92697.94;5011165;28;20191;-71
2023/06/02 04:20:12;;;;;;;12.37;10.70;;;;;;;18.47;79.58;92680.28;5011077;28;20244;-71
2023/06/02 04:22:37;;;;;;;12.37;11.53;;;;;;;19.17;77.11;92689.84;5011293;28;20410;-71
2023/06/02 04:25:03;;;;;;;12.50;11.60;;;;;;;19.34;76.09;92692.34;5010435;28;20233;-73
2023/06/02 04:27:28;;;;;;;12.43;11.23;;;;;;;19.21;76.99;92692.63;4998841;28;20190;-71
2023/06/02 04:29:54;;;;;;;12.90;11.53;;;;;;;19.08;78.09;92683.88;5014283;28;20258;-72
2023/06/02 04:32:19;;;;;;;12.53;11.53;;;;;;;18.93;77.62;92681.84;5009236;28;20200;-71
2023/06/02 04:34:45;;;;;;;13.00;11.90;;;;;;;19.40;76.63;92691.00;5015678;28;20307;-73
2023/06/02 04:37:10;;;;;;;11.63;10.70;;;;;;;19.46;76.14;92657.91;5005412;28;20220;-75
2023/06/02 04:39:36;;;;;;;13.33;12.13;;;;;;;19.60;74.27;92689.34;5010749;28;20258;-73
2023/06/02 04:42:03;;;;;;;12.57;11.57;;;;;;;19.58;74.00;92697.63;4993998;28;20192;-73
2023/06/02 04:44:29;;;;;;;15.90;13.10;;;;;;;20.23;71.03;92665.56;5009724;28;20223;-74
2023/06/02 04:46:55;;;;;;;13.23;11.87;;;;;;;20.83;70.10;92683.13;5009557;28;20289;-75
2023/06/02 04:49:21;;;;;;;13.27;12.07;;;;;;;20.18;71.05;92694.97;5010595;28;20232;-73
2023/06/02 04:51:46;;;;;;;13.10;12.00;;;;;;;20.69;69.69;92698.66;5008873;28;20190;-75
2023/06/02 04:54:14;;;;;;;12.80;11.50;;;;;;;20.76;69.31;92696.22;5003372;28;20214;-71
2023/06/02 04:56:39;;;;;;;11.73;10.80;;;;;;;20.59;69.69;92680.59;5009587;28;20210;-71
2023/06/02 04:59:05;;;;;;;13.00;12.00;;;;;;;20.50;70.57;92683.38;4986477;28;20204;-71
2023/06/02 05:01:31;;;;;;;14.23;12.83;;;;;;;20.04;73.79;92691.88;5012105;28;20185;-71
2023/06/02 05:03:56;;;;;;;12.53;11.53;;;;;;;19.70;74.57;92708.25;5010147;28;20200;-71
2023/06/02 05:06:21;;;;;;;13.13;12.03;;;;;;;19.63;75.27;92705.38;5009942;28;20185;-73
2023/06/02 05:08:47;;;;;;;14.27;12.90;;;;;;;20.00;74.55;92714.84;5010808;28;20183;-74
2023/06/02 05:11:12;;;;;;;16.27;13.03;;;;;;;19.73;75.06;92712.88;5021242;28;20274;-75
2023/06/02 05:13:37;;;;;;;16.23;14.73;;;;;;;19.73;76.45;92715.53;5010954;28;20255;-74
2023/06/02 05:16:03;;;;;;;15.57;14.00;;;;;;;19.97;75.65;92710.19;5009452;28;20239;-73
2023/06/02 05:18:29;;;;;;;15.67;13.97;;;;;;;19.95;76.62;92715.09;5012467;28;20213;-80
2023/06/02 05:20:55;;;;;;;15.17;13.80;;;;;;;20.41;74.25;92722.53;5009734;28;20209;-80
2023/06/02 05:23:20;;;;;;;14.93;13.63;;;;;;;20.33;74.27;92727.94;5012597;28;20193;-80
2023/06/02 05:25:49;;;;;;;16.67;15.07;;;;;;;20.61;71.90;92726.88;5008911;28;20852;-81
2023/06/02 05:28:14;;;;;;;15.83;14.23;;;;;;;20.27;74.86;92716.03;5012007;28;20194;-81
2023/06/02 05:30:40;;;;;;;15.03;13.27;;;;;;;21.47;69.42;92728.06;5014008;28;20238;-81
2023/06/02 05:33:05;;;;;;;15.60;14.00;;;;;;;21.36;70.13;92690.59;5012610;28;20289;-81
2023/06/02 05:35:31;;;;;;;14.55;13.35;;;;;;;26.23;54.96;92718.34;5011534;28;20251;-81
2023/06/02 05:37:56;;;;;;;14.07;12.38;;;;;;;26.45;52.77;92700.50;5008219;28;20190;-82
2023/06/02 05:40:21;;;;;;;14.95;12.43;;;;;;;28.91;44.75;92727.75;5011132;28;20217;-82
2023/06/02 05:42:47;;;;;;;14.95;12.70;;;;;;;30.38;39.86;92718.91;5010403;28;20195;-82
2023/06/02 05:45:12;;;;;;;13.23;11.98;;;;;;;32.72;36.10;92739.78;5011579;28;20234;-81
2023/06/02 05:47:38;;;;;;;13.05;11.85;;;;;;;33.21;35.13;92749.72;5002717;28;20211;-81
2023/06/02 05:50:04;;;;;;;12.18;11.05;;;;;;;31.62;37.10;92729.88;5010827;28;20229;-81
2023/06/02 05:52:30;;;;;;;12.57;11.40;;;;;;;34.34;30.74;92743.44;4985979;28;20202;-80
2023/06/02 05:54:55;;;;;;;11.90;10.85;;;;;;;34.87;30.60;92737.50;5011742;28;20234;-81
2023/06/02 05:57:21;;;;;;;12.48;11.35;;;;;;;34.76;29.89;92747.84;5007865;28;20235;-81
2023/06/02 05:59:46;;;;;;;12.88;11.60;;;;;;;32.79;31.88;92734.25;5010975;28;20227;-82
2023/06/02 06:02:12;;;;;;;13.13;11.70;;;;;;;34.68;30.16;92751.91;5014338;28;20192;-81
2023/06/02 06:04:37;;;;;;;12.63;11.43;;;;;;;35.35;29.89;92744.75;5011768;28;20222;-81
2023/06/02 06:07:04;;;;;;;12.13;10.93;;;;;;;35.20;30.37;92721.91;5005549;28;20285;-81
2023/06/02 06:09:29;;;;;;;12.73;10.20;;;;;;;36.73;27.84;92759.28;5010227;28;20247;-82
2023/06/02 06:11:55;;;;;;;13.15;10.65;;;;;;;35.55;28.43;92759.72;5012986;28;20264;-82
2023/06/02 06:14:20;;;;;;;13.43;10.68;;;;;;;35.44;28.58;92764.69;5006976;28;20232;-81
2023/06/02 06:16:46;;;;;;;11.15;10.15;;;;;;;36.18;26.89;92768.00;5001731;28;20224;-82
2023/06/02 06:19:11;;;;;;;11.55;10.50;;;;;;;35.34;29.01;92757.59;5010679;28;20251;-80
2023/06/02 06:21:37;;;;;;;14.73;10.75;;;;;;;36.00;26.88;92745.25;5011195;28;20192;-79
2023/06/02 06:24:04;;;;;;;11.63;10.43;;;;;;;35.53;28.85;92756.69;5010001;28;20211;-79
2023/06/02 06:26:30;;;;;;;12.20;10.95;;;;;;;35.01;28.88;92741.78;5013649;28;20701;-79
2023/06/02 06:28:55;;;;;;;12.30;10.93;;;;;;;35.74;27.84;92751.84;5010354;28;20226;-79
2023/06/02 06:31:21;;;;;;;16.02;10.73;;;;;;;37.01;26.30;92763.03;5010831;28;20268;-79
2023/06/02 06:33:46;;;;;;;18.30;11.70;;;;;;;36.00;27.46;92739.81;4997310;28;21211;-79
2023/06/02 06:36:11;;;;;;;15.65;10.48;;;;;;;33.81;30.68;92733.00;5009877;28;20219;-79
2023/06/02 06:38:38;;;;;;;14.23;10.90;;;;;;;30.59;36.63;92745.66;5008771;28;20826;-79
2023/06/02 06:41:03;;;;;;;10.77;9.68;;;;;;;29.25;41.05;92734.19;5009477;28;20227;-80
2023/06/02 06:43:29;;;;;;;13.52;11.80;;;;;;;28.25;42.20;92721.38;5009459;28;20213;-79
2023/06/02 06:45:54;;;;;;;12.75;10.93;;;;;;;26.39;46.22;92729.56;4985749;28;20222;-78
2023/06/02 06:48:20;;;;;;;17.95;11.90;;;;;;;25.95;47.99;92715.44;5010448;28;20171;-78
2023/06/02 06:50:48;;;;;;;13.40;11.65;;;;;;;24.81;52.92;92724.56;5009440;28;20223;-78
2023/06/02 06:53:13;;;;;;;17.63;11.68;;;;;;;24.36;55.59;92701.44;5009612;28;20199;-78
2023/06/02 06:55:38;;;;;;;12.93;11.60;;;;;;;25.00;53.85;92698.47;5014999;28;20232;-78
2023/06/02 06:58:04;;;;;;;13.63;12.23;;;;;;;25.36;52.15;92686.25;5009328;28;20183;-78
2023/06/02 07:00:31;;;;;;;12.75;11.68;;;;;;;25.40;52.72;92715.72;4992711;28;20224;-78
2023/06/02 07:02:56;;;;;;;16.00;12.68;;;;;;;24.90;54.84;92725.06;5005986;28;20189;-78
2023/06/02 07:05:22;;;;;;;12.75;11.63;;;;;;;24.80;55.33;92707.78;5009595;28;20215;-78
2023/06/02 07:07:48;;;;;;;13.65;12.38;;;;;;;24.23;56.29;92715.38;5005135;28;20207;-79
2023/06/02 07:10:16;;;;;;;13.23;11.63;;;;;;;25.19;55.07;92718.91;5013205;28;20254;-79
2023/06/02 07:12:42;;;;;;;13.20;12.10;;;;;;;25.16;54.26;92716.97;5020611;28;20183;-78
2023/06/02 07:15:08;;;;;;;12.90;11.55;;;;;;;25.14;53.24;92719.22;5009566;28;20238;-78
2023/06/02 07:17:34;;;;;;;13.02;11.93;;;;;;;22.68;60.31;92717.19;4993861;28;20203;-78
2023/06/02 07:19:59;;;;;;;12.88;11.75;;;;;;;24.16;56.95;92691.22;5008276;28;20229;-78
2023/06/02 07:22:24;;;;;;;14.30;12.65;;;;;;;24.98;55.36;92719.44;5012032;28;20197;-78
2023/06/02 07:24:51;;;;;;;13.48;12.40;;;;;;;25.47;52.48;92723.78;5009591;28;20289;-78
2023/06/02 07:27:16;;;;;;;12.93;11.85;;;;;;;24.82;55.75;92696.72;5010588;28;20198;-78
2023/06/02 07:29:42;;;;;;;12.05;11.07;;;;;;;24.04;57.64;92740.25;5013042;28;20253;-78
2023/06/02 07:32:08;;;;;;;13.48;12.20;;;;;;;24.12;53.76;92709.88;5012286;28;20167;-78
2023/06/02 07:34:34;;;;;;;14.00;12.57;;;;;;;23.91;58.25;92743.44;5015769;28;20240;-78
2023/06/02 07:37:02;;;;;;;14.57;12.68;;;;;;;23.84;58.30;92749.44;5016573;28;20209;-78
2023/06/02 07:39:28;;;;;;;13.98;12.63;;;;;;;23.64;57.87;92723.94;5014599;28;20241;-78
2023/06/02 07:41:53;;;;;;;12.77;11.68;;;;;;;22.98;61.48;92732.25;5013461;28;20195;-78
2023/06/02 07:44:19;;;;;;;13.15;11.95;;;;;;;23.26;58.78;92732.81;5013066;28;20249;-78
2023/06/02 07:46:45;;;;;;;13.98;12.48;;;;;;;23.69;57.55;92739.63;5011949;28;20209;-78
2023/06/02 07:49:11;;;;;;;13.20;12.00;;;;;;;23.04;61.86;92720.19;5010450;28;20202;-79
2023/06/02 07:51:38;;;;;;;15.05;12.55;;;;;;;23.64;58.75;92742.63;5013747;28;20210;-78
2023/06/02 07:54:03;;;;;;;13.73;12.43;;;;;;;23.85;57.81;92726.19;5013182;28;20265;-78
2023/06/02 07:56:29;;;;;;;12.98;11.88;;;;;;;23.94;57.06;92738.13;5014347;28;20212;-78
2023/06/02 07:58:54;;;;;;;12.77;11.57;;;;;;;23.88;57.91;92744.16;4994969;28;20246;-78
2023/06/02 08:01:20;;;;;;;13.48;12.15;;;;;;;23.94;58.25;92740.81;5012543;28;20181;-78
2023/06/02 08:03:45;;;;;;;13.70;12.35;;;;;;;23.87;57.15;92739.94;5005440;28;20184;-78
2023/06/02 08:06:10;;;;;;;12.80;11.65;;;;;;;24.05;58.48;92736.44;5013229;28;20284;-78
2023/06/02 08:08:36;;;;;;;13.65;12.45;;;;;;;23.93;56.62;92693.16;5010361;28;20202;-78
2023/06/02 08:11:01;;;;;;;13.68;12.23;;;;;;;24.08;58.59;92709.03;5013139;28;20306;-80
2023/06/02 08:13:27;;;;;;;13.50;12.20;;;;;;;23.78;58.17;92732.94;4996962;28;20209;-81
2023/06/02 08:15:52;;;;;;;14.25;11.50;;;;;;;24.26;56.79;92725.31;5004989;28;20257;-81
2023/06/02 08:18:18;;;;;;;14.25;12.48;;;;;;;24.52;56.83;92717.28;5004472;28;20214;-80
2023/06/02 08:20:45;;;;;;;12.55;11.55;;;;;;;24.89;55.95;92726.19;5016587;28;20299;-81
2023/06/02 08:23:10;;;;;;;13.73;11.90;;;;;;;24.36;55.96;92712.13;4997386;28;20185;-80
2023/06/02 08:25:38;;;;;;;14.25;12.90;;;;;;;24.65;55.31;92718.63;5009739;28;20267;-80
2023/06/02 08:28:07;;;;;;;17.95;12.95;;;;;;;24.20;59.99;92678.72;5005973;28;20277;-80
2023/06/02 08:30:36;;;;;;;13.65;12.20;;;;;;;24.22;56.31;92708.50;5003941;28;20246;-81
2023/06/02 08:33:03;;;;;;;12.90;11.80;;;;;;;22.75;60.33;92704.00;5013318;28;20197;-81
2023/06/02 08:35:38;;;;;;;13.75;12.43;;;;;;;23.92;58.52;92699.63;4995204;28;20739;-81
2023/06/02 08:38:07;;;;;;;14.00;12.80;;;;;;;24.25;55.22;92707.78;5012490;28;20185;-80
2023/06/02 08:40:37;;;;;;;20.90;12.35;;;;;;;23.44;60.41;92701.91;5008809;28;20230;-81
2023/06/02 08:43:08;;;;;;;12.88;11.57;;;;;;;23.02;61.57;92668.41;5009634;28;20192;-81
2023/06/02 08:45:34;;;;;;;13.15;11.85;;;;;;;23.80;58.86;92695.25;5011953;28;20225;-81
2023/06/02 08:48:03;;;;;;;12.32;11.10;;;;;;;23.05;57.24;92684.41;5012430;28;20264;-82
2023/06/02 08:50:32;;;;;;;13.07;11.77;;;;;;;23.45;57.91;92674.13;4994806;28;20317;-78
2023/06/02 08:53:03;;;;;;;12.27;11.23;;;;;;;23.74;59.80;92667.34;5004149;28;20245;-81
2023/06/02 08:55:29;;;;;;;13.43;11.55;;;;;;;24.34;52.98;92684.25;5010474;28;21516;-80
2023/06/02 08:57:54;;;;;;;12.07;10.98;;;;;;;23.37;54.56;92640.50;5012105;28;20241;-80
2023/06/02 09:00:20;;;;;;;12.82;10.88;;;;;;;22.87;56.44;92670.03;5011660;28;20221;-81
2023/06/02 09:02:49;;;;;;;13.05;12.00;;;;;;;23.58;52.78;92662.16;5014691;28;20177;-80
2023/06/02 09:05:18;;;;;;;12.75;11.60;;;;;;;23.60;57.19;92630.59;5017140;28;20290;-81
2023/06/02 09:07:45;;;;;;;13.48;11.65;;;;;;;24.00;53.29;92659.38;5007185;28;20186;-80
2023/06/02 09:10:28;;;;;;;12.35;11.07;;;;;;;24.10;53.81;92652.66;5002865;28;20245;-80
2023/06/02 09:12:53;;;;;;;13.05;11.85;;;;;;;24.14;51.25;92664.16;5011857;28;20928;-80
2023/06/02 09:15:19;;;;;;;12.07;11.18;;;;;;;24.15;50.83;92669.13;5012219;28;20237;-80
2023/06/02 09:17:44;;;;;;;11.55;10.75;;;;;;;24.25;49.00;92641.81;5011836;28;20182;-80
2023/06/02 09:20:11;;;;;;;12.30;11.13;;;;;;;24.49;47.75;92676.06;5011854;28;20234;-80
2023/06/02 09:22:58;;;;;;;12.50;11.50;;;;;;;24.39;49.89;92670.59;4994970;28;20185;-80
2023/06/02 09:25:28;;;;;;;12.68;11.52;;;;;;;23.86;50.18;92653.06;5013273;28;20234;-80
2023/06/02 09:27:55;;;;;;;11.82;10.73;;;;;;;23.86;47.76;92659.16;5011156;28;20191;-80
2023/06/02 09:30:21;;;;;;;11.13;10.05;;;;;;;23.52;46.62;92649.47;5011230;28;20317;-76
2023/06/02 09:33:00;;;;;;;12.30;10.90;;;;;;;23.02;48.79;92644.44;5012224;28;20185;-76
2023/06/02 09:35:45;;;;;;;11.82;10.88;;;;;;;23.19;50.58;92652.72;5018679;28;20857;-78
2023/06/02 09:38:16;;;;;;;11.65;10.63;;;;;;;23.21;54.29;92645.13;5009347;28;20189;-77
2023/06/02 09:40:42;;;;;;;11.07;10.18;;;;;;;24.13;48.96;92649.28;5010326;28;20284;-75
2023/06/02 09:43:10;;;;;;;12.45;11.40;;;;;;;24.52;49.69;92650.53;5006454;28;20196;-77
2023/06/02 09:45:47;;;;;;;10.63;9.82;;;;;;;24.36;45.50;92647.31;5010708;28;20243;-77
2023/06/02 09:48:18;;;;;;;11.10;10.20;;;;;;;24.46;47.63;92654.66;5012067;28;20201;-76
2023/06/02 09:50:43;;;;;;;11.57;10.70;;;;;;;24.43;47.78;92629.47;5014468;28;20225;-76
2023/06/02 09:53:11;;;;;;;14.20;11.15;;;;;;;24.57;49.75;92645.66;5011479;28;20191;-76
2023/06/02 09:55:37;;;;;;;12.15;10.73;;;;;;;24.43;45.43;92618.03;5011147;28;20237;-76
2023/06/02 09:58:04;;;;;;;12.02;10.75;;;;;;;24.17;46.59;92642.88;5014691;28;20208;-75
2023/06/02 10:00:31;;;;;;;11.50;10.40;;;;;;;23.84;47.71;92652.63;5019592;28;20221;-76
2023/06/02 10:02:56;;;;;;;11.55;10.65;;;;;;;22.74;50.77;92630.59;5024117;28;20195;-76
2023/06/02 10:05:22;;;;;;;11.38;10.40;;;;;;;23.22;51.27;92636.00;5013735;28;20220;-75
2023/06/02 10:08:17;;;;;;;11.20;10.40;;;;;;;23.57;51.68;92633.97;5011052;28;20189;-76
2023/06/02 10:11:15;;;;;;;12.15;10.90;;;;;;;23.66;51.11;92623.81;5001105;28;20236;-75
2023/06/02 10:14:03;;;;;;;12.13;10.75;;;;;;;23.93;50.93;92597.13;5002639;28;20207;-76
2023/06/02 10:17:18;;;;;;;11.38;10.38;;;;;;;24.29;48.08;92615.97;4999428;28;20244;-76
2023/06/02 10:20:21;;;;;;;11.60;10.60;;;;;;;24.26;47.25;92619.34;4986650;28;20232;-74
2023/06/02 10:23:02;;;;;;;10.77;10.00;;;;;;;24.23;46.14;92629.97;5010667;28;20205;-76
2023/06/02 10:25:38;;;;;;;11.27;10.45;;;;;;;24.16;46.73;92625.31;5010527;28;20241;-74
2023/06/02 10:28:06;;;;;;;12.27;11.18;;;;;;;23.73;47.42;92607.94;5010668;28;20253;-75
2023/06/02 10:30:33;;;;;;;11.82;10.85;;;;;;;24.08;47.89;92615.66;5008202;28;20237;-76
2023/06/02 10:32:58;;;;;;;10.45;9.75;;;;;;;24.13;48.89;92587.91;5013646;28;20214;-76
2023/06/02 10:35:56;;;;;;;12.00;11.20;;;;;;;24.08;50.25;92617.59;5012623;28;20225;-76
2023/06/02 10:38:27;;;;;;;11.52;10.52;;;;;;;24.33;50.21;92597.31;5010226;28;20197;-76
2023/06/02 10:40:52;;;;;;;11.82;10.82;;;;;;;24.92;47.75;92592.66;5010526;28;20217;-76
2023/06/02 10:43:18;;;;;;;11.15;10.25;;;;;;;25.19;44.25;92603.97;5011401;28;20203;-76
2023/06/02 10:45:44;;;;;;;10.90;10.02;;;;;;;25.44;41.81;92586.28;5009938;28;20293;-76
2023/06/02 10:48:38;;;;;;;11.63;10.70;;;;;;;24.97;47.02;92599.56;5014292;28;20186;-77
2023/06/02 10:51:06;;;;;;;10.93;9.82;;;;;;;24.65;45.45;92590.44;5006463;28;20233;-77
2023/06/02 10:53:32;;;;;;;12.82;10.55;;;;;;;24.58;46.74;92583.13;4993343;28;20469;-76
2023/06/02 10:56:35;;;;;;;11.50;10.23;;;;;;;25.32;45.47;92599.91;4992537;28;20237;-77
2023/06/02 10:59:04;;;;;;;10.35;9.55;;;;;;;25.34;46.01;92573.59;5021422;28;20197;-76
2023/06/02 11:01:51;;;;;;;11.63;10.73;;;;;;;25.94;48.06;92592.72;5012535;28;20221;-77
2023/06/02 11:04:33;;;;;;;12.50;11.23;;;;;;;26.34;46.47;92585.31;5017209;28;20239;-76
2023/06/02 11:07:21;;;;;;;11.05;10.07;;;;;;;26.19;44.78;92537.44;4996637;28;20209;-77
2023/06/02 11:09:53;;;;;;;11.32;10.40;;;;;;;25.88;49.10;92578.94;5008673;28;20234;-72
2023/06/02 11:12:18;;;;;;;13.50;12.23;;;;;;;25.32;47.72;92578.53;5009018;28;20273;-73
2023/06/02 11:15:00;;;;;;;11.65;10.77;;;;;;;25.32;48.20;92585.75;5008459;28;20250;-73
2023/06/02 11:17:33;;;;;;;11.75;10.68;;;;;;;25.93;48.27;92593.88;5008069;28;20199;-73
2023/06/02 11:19:59;;;;;;;11.38;10.40;;;;;;;26.44;47.92;92595.31;5006707;28;20936;-73